createdAt,value
2018-10-09T00:00:30.154Z,0.00
2018-10-09T00:01:30.149Z,0.00
2018-10-09T00:02:30.111Z,0.00
2018-10-09T00:03:30.109Z,0.00
2018-10-09T00:04:30.107Z,0.00
2018-10-09T00:05:30.100Z,0.00
2018-10-09T00:06:30.128Z,0.00
2018-10-09T00:07:30.101Z,0.00
2018-10-09T00:08:30.094Z,0.00
2018-10-09T00:09:30.093Z,0.00
2018-10-09T00:10:30.117Z,0.00
2018-10-09T00:11:30.085Z,0.00
2018-10-09T00:12:30.087Z,0.00
2018-10-09T00:13:30.078Z,0.00
2018-10-09T00:14:30.078Z,0.00
2018-10-09T00:15:30.106Z,0.00
2018-10-09T00:16:30.070Z,0.00
2018-10-09T00:17:30.074Z,0.00
2018-10-09T00:18:30.066Z,0.00
2018-10-09T00:19:30.062Z,0.00
2018-10-09T00:20:30.094Z,0.00
2018-10-09T00:21:30.058Z,0.00
2018-10-09T00:22:30.056Z,0.00
2018-10-09T00:23:30.054Z,0.00
2018-10-09T00:24:30.051Z,0.00
2018-10-09T00:25:30.075Z,0.00
2018-10-09T00:26:30.070Z,0.00
2018-10-09T00:27:30.039Z,0.00
2018-10-09T00:28:30.035Z,0.00
2018-10-09T00:29:30.031Z,0.00
2018-10-09T00:30:30.031Z,0.00
2018-10-09T00:31:30.055Z,0.00
2018-10-09T00:32:30.021Z,0.00
2018-10-09T00:33:30.019Z,0.00
2018-10-09T00:34:30.015Z,0.00
2018-10-09T00:35:30.017Z,0.00
2018-10-09T00:36:30.045Z,0.00
2018-10-09T00:37:30.007Z,0.00
2018-10-09T00:38:30.007Z,0.00
2018-10-09T00:39:30.004Z,0.00
2018-10-09T00:40:29.996Z,0.00
2018-10-09T00:41:30.025Z,0.00
2018-10-09T00:42:29.995Z,0.00
2018-10-09T00:43:29.992Z,0.00
2018-10-09T00:44:29.988Z,0.00
2018-10-09T00:45:29.981Z,0.00
2018-10-09T00:46:30.008Z,0.00
2018-10-09T00:47:29.975Z,0.00
2018-10-09T00:48:29.974Z,0.00
2018-10-09T00:49:29.972Z,0.00
2018-10-09T00:50:30.025Z,0.00
2018-10-09T00:51:29.968Z,0.00
2018-10-09T00:52:29.961Z,0.00
2018-10-09T00:53:29.962Z,0.00
2018-10-09T00:54:29.957Z,0.00
2018-10-09T00:55:29.983Z,0.00
2018-10-09T00:56:29.945Z,0.00
2018-10-09T00:57:29.973Z,0.00
2018-10-09T00:58:29.950Z,0.00
2018-10-09T00:59:29.941Z,0.00
2018-10-09T01:00:29.968Z,0.00
2018-10-09T01:01:29.934Z,0.00
2018-10-09T01:02:29.936Z,0.00
2018-10-09T01:03:29.924Z,0.00
2018-10-09T01:04:29.926Z,0.00
2018-10-09T01:05:29.950Z,0.00
2018-10-09T01:06:29.920Z,0.00
2018-10-09T01:07:29.933Z,0.00
2018-10-09T01:08:29.917Z,0.00
2018-10-09T01:09:29.916Z,0.00
2018-10-09T01:10:29.935Z,0.00
2018-10-09T01:11:29.904Z,0.00
2018-10-09T01:12:29.906Z,0.00
2018-10-09T01:13:29.901Z,0.00
2018-10-09T01:14:29.897Z,0.00
2018-10-09T01:15:29.918Z,0.00
2018-10-09T01:16:29.894Z,0.00
2018-10-09T01:17:29.887Z,0.00
2018-10-09T01:18:29.885Z,0.00
2018-10-09T01:19:29.879Z,0.00
2018-10-09T01:20:29.901Z,0.00
2018-10-09T01:21:29.875Z,0.00
2018-10-09T01:22:29.908Z,0.00
2018-10-09T01:23:29.869Z,0.00
2018-10-09T01:24:29.874Z,0.00
2018-10-09T01:25:29.864Z,0.00
2018-10-09T01:26:29.885Z,0.00
2018-10-09T01:27:29.856Z,0.00
2018-10-09T01:28:29.850Z,0.00
2018-10-09T01:29:29.852Z,0.00
2018-10-09T01:30:29.877Z,0.00
2018-10-09T01:31:29.849Z,0.00
2018-10-09T01:32:29.873Z,0.00
2018-10-09T01:33:29.841Z,0.00
2018-10-09T01:34:29.842Z,0.00
2018-10-09T01:35:29.848Z,0.00
2018-10-09T01:36:29.855Z,0.00
2018-10-09T01:37:29.828Z,0.00
2018-10-09T01:38:29.825Z,0.00
2018-10-09T01:39:29.821Z,0.00
2018-10-09T01:40:29.845Z,0.00
2018-10-09T01:41:29.815Z,0.00
2018-10-09T01:42:29.810Z,0.00
2018-10-09T01:43:29.814Z,0.00
2018-10-09T01:44:29.807Z,0.00
2018-10-09T01:45:29.833Z,0.00
2018-10-09T01:46:29.799Z,0.00
2018-10-09T01:47:29.789Z,0.00
2018-10-09T01:48:29.795Z,0.00
2018-10-09T01:49:29.793Z,0.00
2018-10-09T01:50:29.810Z,0.00
2018-10-09T01:51:29.783Z,0.00
2018-10-09T01:52:29.806Z,0.00
2018-10-09T01:53:29.781Z,0.00
2018-10-09T01:54:29.774Z,0.00
2018-10-09T01:55:29.798Z,0.00
2018-10-09T01:56:29.769Z,0.00
2018-10-09T01:57:29.798Z,0.00
2018-10-09T01:58:29.762Z,0.00
2018-10-09T01:59:29.760Z,0.00
2018-10-09T02:00:29.756Z,0.00
2018-10-09T02:01:29.780Z,0.00
2018-10-09T02:02:29.754Z,0.00
2018-10-09T02:03:29.740Z,0.00
2018-10-09T02:04:29.743Z,0.00
2018-10-09T02:05:29.741Z,0.00
2018-10-09T02:06:29.763Z,0.00
2018-10-09T02:07:29.734Z,0.00
2018-10-09T02:08:29.733Z,0.00
2018-10-09T02:09:29.728Z,0.00
2018-10-09T02:10:29.724Z,0.00
2018-10-09T02:11:29.748Z,0.00
2018-10-09T02:12:29.719Z,0.00
2018-10-09T02:13:29.712Z,0.00
2018-10-09T02:14:29.710Z,0.00
2018-10-09T02:15:29.713Z,0.00
2018-10-09T02:16:29.733Z,0.00
2018-10-09T02:17:29.702Z,0.00
2018-10-09T02:18:29.701Z,0.00
2018-10-09T02:19:29.692Z,0.00
2018-10-09T02:20:29.702Z,0.00
2018-10-09T02:21:29.718Z,0.00
2018-10-09T02:22:29.683Z,0.00
2018-10-09T02:23:29.681Z,0.00
2018-10-09T02:24:29.673Z,0.00
2018-10-09T02:25:29.678Z,0.00
2018-10-09T02:26:29.704Z,0.00
2018-10-09T02:27:29.696Z,0.00
2018-10-09T02:28:29.672Z,0.00
2018-10-09T02:29:29.662Z,0.00
2018-10-09T02:30:29.660Z,0.00
2018-10-09T02:31:29.656Z,0.00
2018-10-09T02:32:29.683Z,0.00
2018-10-09T02:33:29.738Z,0.00
2018-10-09T02:34:29.647Z,0.00
2018-10-09T02:35:29.645Z,0.00
2018-10-09T02:36:29.643Z,0.00
2018-10-09T02:37:29.663Z,0.00
2018-10-09T02:38:29.635Z,0.00
2018-10-09T02:39:29.632Z,0.00
2018-10-09T02:40:29.628Z,0.00
2018-10-09T02:41:29.654Z,0.00
2018-10-09T02:42:29.620Z,0.00
2018-10-09T02:43:29.615Z,0.00
2018-10-09T02:44:29.618Z,0.00
2018-10-09T02:45:29.611Z,0.00
2018-10-09T02:46:29.635Z,0.00
2018-10-09T02:47:29.603Z,0.00
2018-10-09T02:48:29.600Z,0.00
2018-10-09T02:49:29.600Z,0.00
2018-10-09T02:50:29.596Z,0.00
2018-10-09T02:51:29.639Z,0.00
2018-10-09T02:52:29.589Z,0.00
2018-10-09T02:53:29.584Z,0.00
2018-10-09T02:54:29.581Z,0.00
2018-10-09T02:55:29.576Z,0.00
2018-10-09T02:56:29.605Z,0.00
2018-10-09T02:57:29.572Z,0.00
2018-10-09T02:58:29.562Z,0.00
2018-10-09T02:59:29.566Z,0.00
2018-10-09T03:00:29.589Z,0.00
2018-10-09T03:01:29.553Z,0.00
2018-10-09T03:02:29.583Z,0.00
2018-10-09T03:03:29.549Z,0.00
2018-10-09T03:04:29.545Z,0.00
2018-10-09T03:05:29.541Z,0.00
2018-10-09T03:06:29.565Z,0.00
2018-10-09T03:07:29.535Z,0.00
2018-10-09T03:08:29.540Z,0.00
2018-10-09T03:09:29.530Z,0.00
2018-10-09T03:10:29.560Z,0.00
2018-10-09T03:11:29.519Z,0.00
2018-10-09T03:12:29.520Z,0.00
2018-10-09T03:13:29.542Z,0.00
2018-10-09T03:14:29.516Z,0.00
2018-10-09T03:15:29.504Z,0.00
2018-10-09T03:16:29.535Z,0.00
2018-10-09T03:17:29.504Z,0.00
2018-10-09T03:18:29.497Z,0.00
2018-10-09T03:19:29.635Z,0.00
2018-10-09T03:20:29.525Z,0.00
2018-10-09T03:21:29.515Z,0.00
2018-10-09T03:22:29.483Z,0.00
2018-10-09T03:23:29.479Z,0.00
2018-10-09T03:24:29.479Z,0.00
2018-10-09T03:25:29.476Z,0.00
2018-10-09T03:26:29.507Z,0.00
2018-10-09T03:27:29.466Z,0.00
2018-10-09T03:28:29.462Z,0.00
2018-10-09T03:29:29.461Z,0.00
2018-10-09T03:30:29.459Z,0.00
2018-10-09T03:31:29.484Z,0.00
2018-10-09T03:32:29.448Z,0.00
2018-10-09T03:33:29.444Z,0.00
2018-10-09T03:34:29.444Z,0.00
2018-10-09T03:35:29.440Z,0.00
2018-10-09T03:36:29.463Z,0.00
2018-10-09T03:37:29.429Z,0.00
2018-10-09T03:38:29.433Z,0.00
2018-10-09T03:39:29.424Z,0.00
2018-10-09T03:40:29.421Z,0.00
2018-10-09T03:41:29.444Z,0.00
2018-10-09T03:42:29.416Z,0.00
2018-10-09T03:43:29.414Z,0.00
2018-10-09T03:44:29.405Z,0.00
2018-10-09T03:45:29.404Z,0.00
2018-10-09T03:46:29.428Z,0.00
2018-10-09T03:47:29.396Z,0.00
2018-10-09T03:48:29.394Z,0.00
2018-10-09T03:49:29.389Z,0.00
2018-10-09T03:50:29.385Z,0.00
2018-10-09T03:51:29.409Z,0.00
2018-10-09T03:52:29.376Z,0.00
2018-10-09T03:53:29.378Z,0.00
2018-10-09T03:54:29.412Z,0.00
2018-10-09T03:55:29.366Z,0.00
2018-10-09T03:56:29.389Z,0.00
2018-10-09T03:57:29.362Z,0.00
2018-10-09T03:58:29.358Z,0.00
2018-10-09T03:59:29.350Z,0.00
2018-10-09T04:00:29.353Z,0.00
2018-10-09T04:01:29.385Z,0.00
2018-10-09T04:02:29.342Z,0.00
2018-10-09T04:03:29.339Z,0.00
2018-10-09T04:04:29.334Z,0.00
2018-10-09T04:05:29.335Z,0.00
2018-10-09T04:06:29.359Z,0.00
2018-10-09T04:07:29.323Z,0.00
2018-10-09T04:08:29.319Z,0.00
2018-10-09T04:09:29.367Z,0.00
2018-10-09T04:10:29.314Z,0.00
2018-10-09T04:11:29.340Z,0.00
2018-10-09T04:12:29.320Z,0.00
2018-10-09T04:13:34.276Z,0.00
2018-10-09T04:14:29.299Z,0.00
2018-10-09T04:15:29.290Z,0.00
2018-10-09T04:16:29.323Z,0.00
2018-10-09T04:17:29.289Z,0.00
2018-10-09T04:18:29.313Z,0.00
2018-10-09T04:19:29.283Z,0.00
2018-10-09T04:20:29.271Z,0.00
2018-10-09T04:21:29.277Z,0.00
2018-10-09T04:22:29.296Z,0.00
2018-10-09T04:23:29.265Z,0.00
2018-10-09T04:24:29.263Z,0.00
2018-10-09T04:25:29.260Z,0.00
2018-10-09T04:26:29.265Z,0.00
2018-10-09T04:27:29.279Z,0.00
2018-10-09T04:28:29.248Z,0.00
2018-10-09T04:29:29.329Z,0.00
2018-10-09T04:30:29.240Z,0.00
2018-10-09T04:31:29.245Z,0.00
2018-10-09T04:32:29.261Z,0.00
2018-10-09T04:33:29.229Z,0.00
2018-10-09T04:34:29.232Z,0.00
2018-10-09T04:35:29.233Z,0.00
2018-10-09T04:36:29.221Z,0.00
2018-10-09T04:37:29.244Z,0.00
2018-10-09T04:38:29.212Z,0.00
2018-10-09T04:39:29.212Z,0.00
2018-10-09T04:40:29.205Z,0.00
2018-10-09T04:41:29.201Z,0.00
2018-10-09T04:42:29.368Z,0.00
2018-10-09T04:43:29.215Z,0.00
2018-10-09T04:44:29.195Z,0.00
2018-10-09T04:45:29.265Z,0.00
2018-10-09T04:46:29.190Z,0.00
2018-10-09T04:47:29.210Z,0.00
2018-10-09T04:48:29.178Z,0.00
2018-10-09T04:49:29.171Z,0.00
2018-10-09T04:50:29.174Z,0.00
2018-10-09T04:51:29.169Z,0.00
2018-10-09T04:52:29.191Z,0.00
2018-10-09T04:53:29.162Z,0.00
2018-10-09T04:54:29.158Z,0.00
2018-10-09T04:55:29.154Z,0.00
2018-10-09T04:56:29.149Z,0.00
2018-10-09T04:57:30.683Z,0.00
2018-10-09T04:58:29.144Z,0.00
2018-10-09T04:59:29.139Z,0.00
2018-10-09T05:00:29.153Z,0.00
2018-10-09T05:01:29.135Z,0.00
2018-10-09T05:02:29.164Z,0.00
2018-10-09T05:03:29.129Z,0.00
2018-10-09T05:04:29.125Z,0.00
2018-10-09T05:05:29.119Z,0.00
2018-10-09T05:06:29.904Z,0.00
2018-10-09T05:07:31.222Z,0.00
2018-10-09T05:08:31.084Z,5.63
2018-10-09T05:09:30.966Z,5.63
2018-10-09T05:10:29.110Z,5.63
2018-10-09T05:11:29.100Z,5.63
2018-10-09T05:12:29.125Z,11.25
2018-10-09T05:13:29.094Z,5.63
2018-10-09T05:14:29.084Z,5.63
2018-10-09T05:15:29.084Z,5.63
2018-10-09T05:16:29.080Z,11.25
2018-10-09T05:17:29.104Z,11.25
2018-10-09T05:18:29.076Z,11.25
2018-10-09T05:19:29.095Z,11.25
2018-10-09T05:20:29.072Z,11.25
2018-10-09T05:21:29.065Z,16.88
2018-10-09T05:22:29.066Z,16.88
2018-10-09T05:23:29.084Z,16.88
2018-10-09T05:24:34.183Z,16.88
2018-10-09T05:25:29.721Z,22.50
2018-10-09T05:26:32.319Z,22.50
2018-10-09T05:27:29.073Z,22.50
2018-10-09T05:28:30.192Z,28.13
2018-10-09T05:29:29.073Z,28.13
2018-10-09T05:30:31.210Z,28.13
2018-10-09T05:31:32.204Z,33.75
2018-10-09T05:32:30.198Z,39.38
2018-10-09T05:33:32.390Z,45.00
2018-10-09T05:34:29.053Z,45.00
2018-10-09T05:35:29.018Z,50.63
2018-10-09T05:36:29.014Z,56.25
2018-10-09T05:37:29.062Z,56.25
2018-10-09T05:38:29.687Z,61.88
2018-10-09T05:39:29.299Z,67.50
2018-10-09T05:40:29.258Z,73.13
2018-10-09T05:41:33.013Z,78.75
2018-10-09T05:42:30.684Z,84.38
2018-10-09T05:43:31.267Z,90.00
2018-10-09T05:44:29.229Z,95.63
2018-10-09T05:45:28.981Z,106.88
2018-10-09T05:46:29.012Z,112.50
2018-10-09T05:47:28.964Z,118.13
2018-10-09T05:48:28.999Z,123.75
2018-10-09T05:49:29.006Z,135.00
2018-10-09T05:50:29.168Z,146.25
2018-10-09T05:51:28.971Z,157.50
2018-10-09T05:52:29.009Z,174.38
2018-10-09T05:53:28.967Z,185.63
2018-10-09T05:54:28.961Z,196.88
2018-10-09T05:55:28.945Z,202.50
2018-10-09T05:56:28.978Z,213.75
2018-10-09T05:57:28.942Z,225.00
2018-10-09T05:58:28.941Z,230.63
2018-10-09T05:59:28.971Z,236.25
2018-10-09T06:00:28.939Z,241.88
2018-10-09T06:01:28.938Z,247.50
2018-10-09T06:02:28.965Z,253.13
2018-10-09T06:03:28.919Z,258.75
2018-10-09T06:04:28.926Z,270.00
2018-10-09T06:05:28.917Z,275.63
2018-10-09T06:06:28.952Z,286.88
2018-10-09T06:07:28.910Z,292.50
2018-10-09T06:08:28.937Z,298.13
2018-10-09T06:09:28.908Z,315.00
2018-10-09T06:10:28.907Z,331.88
2018-10-09T06:11:28.903Z,337.50
2018-10-09T06:12:28.922Z,348.75
2018-10-09T06:13:28.899Z,365.63
2018-10-09T06:14:28.879Z,376.88
2018-10-09T06:15:28.974Z,382.50
2018-10-09T06:16:28.883Z,388.13
2018-10-09T06:17:28.907Z,393.75
2018-10-09T06:18:28.879Z,393.75
2018-10-09T06:19:28.873Z,399.38
2018-10-09T06:20:28.877Z,405.00
2018-10-09T06:21:28.876Z,421.88
2018-10-09T06:22:28.922Z,438.75
2018-10-09T06:23:28.875Z,461.25
2018-10-09T06:24:28.870Z,472.50
2018-10-09T06:25:28.860Z,466.88
2018-10-09T06:26:28.892Z,461.25
2018-10-09T06:27:28.861Z,472.50
2018-10-09T06:28:28.974Z,478.13
2018-10-09T06:29:28.858Z,489.38
2018-10-09T06:30:28.859Z,495.00
2018-10-09T06:31:28.866Z,506.25
2018-10-09T06:32:28.843Z,511.88
2018-10-09T06:33:28.848Z,511.88
2018-10-09T06:34:28.837Z,517.50
2018-10-09T06:35:28.835Z,517.50
2018-10-09T06:36:28.867Z,528.75
2018-10-09T06:37:28.836Z,562.50
2018-10-09T06:38:28.833Z,624.38
2018-10-09T06:39:28.834Z,658.13
2018-10-09T06:40:28.881Z,641.25
2018-10-09T06:41:28.860Z,613.13
2018-10-09T06:42:28.826Z,596.25
2018-10-09T06:43:28.823Z,590.63
2018-10-09T06:44:28.821Z,596.25
2018-10-09T06:45:28.828Z,590.63
2018-10-09T06:46:28.871Z,607.50
2018-10-09T06:47:28.867Z,630.00
2018-10-09T06:48:28.817Z,630.00
2018-10-09T06:49:28.823Z,630.00
2018-10-09T06:50:28.816Z,624.38
2018-10-09T06:51:28.848Z,613.13
2018-10-09T06:52:28.817Z,590.63
2018-10-09T06:53:28.832Z,590.63
2018-10-09T06:54:28.839Z,601.88
2018-10-09T06:55:28.814Z,669.38
2018-10-09T06:56:28.845Z,720.00
2018-10-09T06:57:28.813Z,731.25
2018-10-09T06:58:28.813Z,759.38
2018-10-09T06:59:28.813Z,793.13
2018-10-09T07:00:28.819Z,826.88
2018-10-09T07:01:28.848Z,793.13
2018-10-09T07:02:28.814Z,770.63
2018-10-09T07:03:28.814Z,855.00
2018-10-09T07:04:28.812Z,855.00
2018-10-09T07:05:28.813Z,843.75
2018-10-09T07:06:28.898Z,832.50
2018-10-09T07:07:28.817Z,860.63
2018-10-09T07:08:28.814Z,1001.25
2018-10-09T07:09:28.815Z,1023.75
2018-10-09T07:10:28.813Z,1119.38
2018-10-09T07:11:28.845Z,961.88
2018-10-09T07:12:28.818Z,821.25
2018-10-09T07:13:28.814Z,703.13
2018-10-09T07:14:28.814Z,658.13
2018-10-09T07:15:28.815Z,697.50
2018-10-09T07:16:28.843Z,714.38
2018-10-09T07:17:28.825Z,725.63
2018-10-09T07:18:28.820Z,748.13
2018-10-09T07:19:28.816Z,781.88
2018-10-09T07:20:28.821Z,826.88
2018-10-09T07:21:28.850Z,770.63
2018-10-09T07:22:28.822Z,714.38
2018-10-09T07:23:28.824Z,675.00
2018-10-09T07:24:28.823Z,646.88
2018-10-09T07:25:28.833Z,652.50
2018-10-09T07:26:28.852Z,658.13
2018-10-09T07:27:28.820Z,663.75
2018-10-09T07:28:28.828Z,658.13
2018-10-09T07:29:28.825Z,686.25
2018-10-09T07:30:28.858Z,720.00
2018-10-09T07:31:28.876Z,787.50
2018-10-09T07:32:28.824Z,916.88
2018-10-09T07:33:28.828Z,995.63
2018-10-09T07:34:28.828Z,995.63
2018-10-09T07:35:28.860Z,1012.50
2018-10-09T07:36:28.832Z,1012.50
2018-10-09T07:37:28.839Z,1080.00
2018-10-09T07:38:28.833Z,1147.50
2018-10-09T07:39:28.832Z,1237.50
2018-10-09T07:40:28.860Z,1271.25
2018-10-09T07:41:28.837Z,1344.38
2018-10-09T07:42:28.836Z,1451.25
2018-10-09T07:43:28.839Z,1468.13
2018-10-09T07:44:28.838Z,1417.50
2018-10-09T07:45:28.870Z,1378.13
2018-10-09T07:46:28.837Z,1299.38
2018-10-09T07:47:28.844Z,1231.88
2018-10-09T07:48:28.843Z,1141.88
2018-10-09T07:49:28.879Z,1164.38
2018-10-09T07:50:28.853Z,1164.38
2018-10-09T07:51:28.881Z,1158.75
2018-10-09T07:52:29.834Z,1175.63
2018-10-09T07:53:28.865Z,1158.75
2018-10-09T07:54:28.861Z,1175.63
2018-10-09T07:55:28.867Z,1271.25
2018-10-09T07:56:28.898Z,1378.13
2018-10-09T07:57:28.905Z,1355.63
2018-10-09T07:58:28.896Z,1243.13
2018-10-09T07:59:28.879Z,1260.00
2018-10-09T08:00:28.883Z,1333.13
2018-10-09T08:01:28.914Z,1338.75
2018-10-09T08:02:28.896Z,1248.75
2018-10-09T08:03:28.895Z,1237.50
2018-10-09T08:04:28.900Z,1265.63
2018-10-09T08:05:28.908Z,1215.00
2018-10-09T08:06:28.938Z,1248.75
2018-10-09T08:07:28.911Z,1395.00
2018-10-09T08:08:28.915Z,1423.13
2018-10-09T08:09:28.921Z,1366.88
2018-10-09T08:10:29.003Z,1473.75
2018-10-09T08:11:28.953Z,1507.50
2018-10-09T08:12:29.043Z,1496.25
2018-10-09T08:13:28.943Z,1507.50
2018-10-09T08:14:28.937Z,1586.25
2018-10-09T08:15:29.192Z,1456.88
2018-10-09T08:16:29.031Z,1231.88
2018-10-09T08:17:28.951Z,1254.38
2018-10-09T08:18:28.956Z,1445.63
2018-10-09T08:19:28.957Z,1423.13
2018-10-09T08:20:28.961Z,1462.50
2018-10-09T08:21:29.379Z,1411.88
2018-10-09T08:22:29.805Z,1344.38
2018-10-09T08:23:28.980Z,1271.25
2018-10-09T08:24:28.991Z,1243.13
2018-10-09T08:25:28.992Z,1248.75
2018-10-09T08:26:29.022Z,1231.88
2018-10-09T08:27:29.000Z,1181.25
2018-10-09T08:28:29.709Z,1186.88
2018-10-09T08:29:29.013Z,1170.00
2018-10-09T08:30:29.043Z,1130.63
2018-10-09T08:31:29.017Z,1220.63
2018-10-09T08:32:29.058Z,1276.88
2018-10-09T08:33:29.030Z,1316.25
2018-10-09T08:34:29.048Z,1327.50
2018-10-09T08:35:29.709Z,1344.38
2018-10-09T08:36:30.858Z,1333.13
2018-10-09T08:37:29.074Z,1361.25
2018-10-09T08:38:29.053Z,1366.88
2018-10-09T08:39:30.541Z,1417.50
2018-10-09T08:40:29.179Z,1473.75
2018-10-09T08:41:29.072Z,1541.25
2018-10-09T08:42:29.785Z,1603.13
2018-10-09T08:43:29.078Z,1648.13
2018-10-09T08:44:29.086Z,1721.25
2018-10-09T08:45:29.122Z,1771.88
2018-10-09T08:46:29.096Z,1800.00
2018-10-09T08:47:29.102Z,1850.63
2018-10-09T08:48:29.143Z,1884.38
2018-10-09T08:49:29.130Z,1833.75
2018-10-09T08:50:29.123Z,1822.50
2018-10-09T08:51:29.131Z,1867.50
2018-10-09T08:52:29.139Z,1828.13
2018-10-09T08:53:29.172Z,1890.00
2018-10-09T08:54:29.154Z,1867.50
2018-10-09T08:55:29.479Z,1929.38
2018-10-09T08:56:29.163Z,1923.75
2018-10-09T08:57:29.245Z,1861.88
2018-10-09T08:58:29.212Z,1884.38
2018-10-09T08:59:29.195Z,1918.13
2018-10-09T09:00:29.201Z,1895.63
2018-10-09T09:01:29.215Z,1929.38
2018-10-09T09:02:29.226Z,1867.50
2018-10-09T09:03:29.300Z,1850.63
2018-10-09T09:04:29.240Z,1771.88
2018-10-09T09:05:29.245Z,1732.50
2018-10-09T09:06:29.264Z,1704.38
2018-10-09T09:07:29.264Z,1738.13
2018-10-09T09:08:29.297Z,1681.88
2018-10-09T09:09:29.301Z,1642.50
2018-10-09T09:10:29.297Z,1591.88
2018-10-09T09:11:29.327Z,1496.25
2018-10-09T09:12:29.310Z,1434.38
2018-10-09T09:13:29.352Z,1428.75
2018-10-09T09:14:29.328Z,1395.00
2018-10-09T09:15:29.447Z,1361.25
2018-10-09T09:16:29.343Z,1350.00
2018-10-09T09:17:29.355Z,1344.38
2018-10-09T09:18:29.389Z,1338.75
2018-10-09T09:19:29.374Z,1344.38
2018-10-09T09:20:29.424Z,1355.63
2018-10-09T09:21:29.387Z,1361.25
2018-10-09T09:22:29.398Z,1372.50
2018-10-09T09:23:29.430Z,1378.13
2018-10-09T09:24:29.411Z,1378.13
2018-10-09T09:25:29.418Z,1355.63
2018-10-09T09:26:29.495Z,1344.38
2018-10-09T09:27:29.524Z,1333.13
2018-10-09T09:28:29.471Z,1310.63
2018-10-09T09:29:29.454Z,1293.75
2018-10-09T09:30:29.461Z,1282.50
2018-10-09T09:31:29.459Z,1276.88
2018-10-09T09:32:29.604Z,1282.50
2018-10-09T09:33:29.504Z,1276.88
2018-10-09T09:34:29.485Z,1271.25
2018-10-09T09:35:29.498Z,1293.75
2018-10-09T09:36:29.523Z,1271.25
2018-10-09T09:37:29.504Z,1282.50
2018-10-09T09:38:30.337Z,1299.38
2018-10-09T09:39:29.543Z,1271.25
2018-10-09T09:40:29.523Z,1248.75
2018-10-09T09:41:29.530Z,1215.00
2018-10-09T09:42:29.536Z,1175.63
2018-10-09T09:43:29.545Z,1153.13
2018-10-09T09:44:29.577Z,1113.75
2018-10-09T09:45:30.385Z,1136.25
2018-10-09T09:46:29.571Z,1119.38
2018-10-09T09:47:29.572Z,1108.13
2018-10-09T09:48:29.609Z,1091.25
2018-10-09T09:49:29.581Z,1068.75
2018-10-09T09:50:29.589Z,1068.75
2018-10-09T09:51:30.476Z,1063.13
2018-10-09T09:52:29.601Z,1068.75
2018-10-09T09:53:29.648Z,1074.38
2018-10-09T09:54:29.614Z,1068.75
2018-10-09T09:55:29.621Z,1063.13
2018-10-09T09:56:29.628Z,1063.13
2018-10-09T09:57:29.631Z,1063.13
2018-10-09T09:58:29.756Z,1063.13
2018-10-09T09:59:29.642Z,1080.00
2018-10-09T10:00:29.658Z,1096.88
2018-10-09T10:01:29.656Z,1130.63
2018-10-09T10:02:29.665Z,1147.50
2018-10-09T10:03:29.733Z,1170.00
2018-10-09T10:04:29.679Z,1192.50
2018-10-09T10:05:29.678Z,1220.63
2018-10-09T10:06:29.683Z,1243.13
2018-10-09T10:07:29.690Z,1288.13
2018-10-09T10:08:29.723Z,1333.13
2018-10-09T10:09:29.705Z,1434.38
2018-10-09T10:10:29.711Z,1546.88
2018-10-09T10:11:29.712Z,1659.38
2018-10-09T10:12:29.836Z,1811.25
2018-10-09T10:13:29.724Z,1873.13
2018-10-09T10:14:29.731Z,1766.25
2018-10-09T10:15:29.736Z,1704.38
2018-10-09T10:16:29.747Z,1687.50
2018-10-09T10:17:29.776Z,1631.25
2018-10-09T10:18:29.756Z,1642.50
2018-10-09T10:19:29.764Z,1648.13
2018-10-09T10:20:29.772Z,1535.63
2018-10-09T10:21:29.822Z,1468.13
2018-10-09T10:22:29.824Z,1501.88
2018-10-09T10:23:29.793Z,1456.88
2018-10-09T10:24:29.800Z,1366.88
2018-10-09T10:25:30.380Z,1293.75
2018-10-09T10:26:29.849Z,1293.75
2018-10-09T10:27:29.876Z,1344.38
2018-10-09T10:28:29.885Z,1395.00
2018-10-09T10:29:29.847Z,1451.25
2018-10-09T10:30:29.852Z,1468.13
2018-10-09T10:31:29.855Z,1530.00
2018-10-09T10:32:29.863Z,1518.75
2018-10-09T10:33:29.903Z,1445.63
2018-10-09T10:34:29.879Z,1423.13
2018-10-09T10:35:29.901Z,1518.75
2018-10-09T10:36:29.905Z,1608.75
2018-10-09T10:37:29.906Z,1805.63
2018-10-09T10:38:29.938Z,1968.75
2018-10-09T10:39:29.922Z,1974.38
2018-10-09T10:40:29.929Z,1940.63
2018-10-09T10:41:29.946Z,1890.00
2018-10-09T10:42:29.951Z,1867.50
2018-10-09T10:43:29.987Z,1805.63
2018-10-09T10:44:29.974Z,1783.13
2018-10-09T10:45:30.134Z,1783.13
2018-10-09T10:46:29.995Z,1805.63
2018-10-09T10:47:30.031Z,1760.63
2018-10-09T10:48:30.017Z,2013.75
2018-10-09T10:49:30.059Z,2092.50
2018-10-09T10:50:30.048Z,2154.38
2018-10-09T10:51:30.052Z,2176.88
2018-10-09T10:52:30.099Z,2300.63
2018-10-09T10:53:30.082Z,2131.88
2018-10-09T10:54:30.086Z,2030.63
2018-10-09T10:55:30.104Z,1929.38
2018-10-09T10:56:30.123Z,1603.13
2018-10-09T10:57:30.211Z,1406.25
2018-10-09T10:58:30.149Z,1293.75
2018-10-09T10:59:30.166Z,1192.50
2018-10-09T11:00:30.180Z,1170.00
2018-10-09T11:01:30.232Z,1288.13
2018-10-09T11:02:30.238Z,1344.38
2018-10-09T11:03:30.218Z,1355.63
2018-10-09T11:04:30.237Z,1203.75
2018-10-09T11:05:30.248Z,1158.75
2018-10-09T11:06:30.262Z,1355.63
2018-10-09T11:07:30.298Z,1625.63
2018-10-09T11:08:30.319Z,1648.13
2018-10-09T11:09:30.303Z,1541.25
2018-10-09T11:10:30.317Z,1546.88
2018-10-09T11:11:30.327Z,1440.00
2018-10-09T11:12:30.370Z,1254.38
2018-10-09T11:13:30.359Z,1080.00
2018-10-09T11:14:30.384Z,1018.13
2018-10-09T11:15:30.387Z,1141.88
2018-10-09T11:16:30.403Z,1310.63
2018-10-09T11:17:30.440Z,1479.38
2018-10-09T11:18:30.431Z,1530.00
2018-10-09T11:19:30.443Z,1462.50
2018-10-09T11:20:30.459Z,1620.00
2018-10-09T11:21:30.484Z,1631.25
2018-10-09T11:22:30.515Z,1665.00
2018-10-09T11:23:30.504Z,1732.50
2018-10-09T11:24:30.513Z,1687.50
2018-10-09T11:25:30.534Z,1749.38
2018-10-09T11:26:30.548Z,1648.13
2018-10-09T11:27:30.588Z,1676.25
2018-10-09T11:28:30.603Z,1771.88
2018-10-09T11:29:30.592Z,1788.75
2018-10-09T11:30:30.603Z,1620.00
2018-10-09T11:31:30.624Z,1479.38
2018-10-09T11:32:30.678Z,1535.63
2018-10-09T11:33:30.661Z,1670.63
2018-10-09T11:34:30.676Z,1659.38
2018-10-09T11:35:30.727Z,1625.63
2018-10-09T11:36:30.708Z,1552.50
2018-10-09T11:37:30.785Z,1507.50
2018-10-09T11:38:30.774Z,1614.38
2018-10-09T11:39:30.761Z,1771.88
2018-10-09T11:40:30.779Z,1800.00
2018-10-09T11:41:30.802Z,1743.75
2018-10-09T11:42:30.849Z,1738.13
2018-10-09T11:43:30.830Z,1743.75
2018-10-09T11:44:30.875Z,1805.63
2018-10-09T11:45:30.863Z,1771.88
2018-10-09T11:46:30.888Z,1755.00
2018-10-09T11:47:30.906Z,1749.38
2018-10-09T11:48:30.950Z,1794.38
2018-10-09T11:49:30.937Z,1890.00
2018-10-09T11:50:30.964Z,1957.50
2018-10-09T11:51:30.978Z,1901.25
2018-10-09T11:52:30.998Z,1873.13
2018-10-09T11:53:31.055Z,1805.63
2018-10-09T11:54:31.036Z,1743.75
2018-10-09T11:55:31.058Z,1760.63
2018-10-09T11:56:31.075Z,1760.63
2018-10-09T11:57:31.091Z,1743.75
2018-10-09T11:58:31.159Z,1676.25
2018-10-09T11:59:31.131Z,1552.50
2018-10-09T12:00:31.154Z,1501.88
2018-10-09T12:01:31.780Z,1485.00
2018-10-09T12:02:31.280Z,1417.50
2018-10-09T12:03:32.785Z,1468.13
2018-10-09T12:04:31.230Z,1507.50
2018-10-09T12:05:33.035Z,1558.13
2018-10-09T12:06:31.277Z,1608.75
2018-10-09T12:07:31.281Z,1558.13
2018-10-09T12:08:31.343Z,1597.50
2018-10-09T12:09:31.326Z,1586.25
2018-10-09T12:10:31.348Z,1648.13
2018-10-09T12:11:31.361Z,1631.25
2018-10-09T12:12:31.914Z,1586.25
2018-10-09T12:13:31.460Z,1642.50
2018-10-09T12:14:31.418Z,1670.63
2018-10-09T12:15:31.462Z,1704.38
2018-10-09T12:16:31.462Z,1755.00
2018-10-09T12:17:31.506Z,1743.75
2018-10-09T12:18:31.500Z,1833.75
2018-10-09T12:19:31.519Z,1710.00
2018-10-09T12:20:31.545Z,1625.63
2018-10-09T12:21:32.444Z,1788.75
2018-10-09T12:22:31.605Z,1788.75
2018-10-09T12:23:31.621Z,1659.38
2018-10-09T12:24:31.635Z,1698.75
2018-10-09T12:25:31.639Z,1738.13
2018-10-09T12:26:31.655Z,1766.25
2018-10-09T12:27:31.708Z,1805.63
2018-10-09T12:28:31.721Z,1816.88
2018-10-09T12:29:31.716Z,1890.00
2018-10-09T12:30:31.736Z,1935.00
2018-10-09T12:31:31.757Z,1822.50
2018-10-09T12:32:31.800Z,1766.25
2018-10-09T12:33:31.827Z,1715.63
2018-10-09T12:34:31.816Z,1890.00
2018-10-09T12:35:31.833Z,1968.75
2018-10-09T12:36:31.853Z,1878.75
2018-10-09T12:37:31.901Z,1856.25
2018-10-09T12:38:31.964Z,1963.13
2018-10-09T12:39:31.915Z,1957.50